Time;durP1;ratioP1;P1;durP2;ratioP2;P2;SDS_P1;SDS_P2;PMS_P1;PMS_P2;Temp;Humidity;BMP_temperature;BMP_pressure;BME280_temperature;BME280_humidity;BME280_pressure;Samples;Min_cycle;Max_cycle;Signal;HPM_P1;HPM_P2
2023/03/18 00:02:02;;;;;;;21.80;11.23;;;14.70;99.90;;;;;;4965165;28;20073;-73
2023/03/18 00:04:28;;;;;;;25.05;11.27;;;14.70;99.90;;;;;;4964148;28;20066;-73
2023/03/18 00:06:54;;;;;;;19.88;11.35;;;14.60;99.90;;;;;;4964945;28;20038;-74
2023/03/18 00:09:20;;;;;;;19.45;10.95;;;14.60;99.90;;;;;;4966582;28;20046;-72
2023/03/18 00:11:46;;;;;;;19.30;11.75;;;14.60;99.90;;;;;;4962129;28;20488;-72
2023/03/18 00:14:12;;;;;;;19.98;12.32;;;14.70;99.90;;;;;;4961486;28;20494;-72
2023/03/18 00:16:38;;;;;;;24.45;12.93;;;14.60;99.90;;;;;;4965535;28;20482;-72
2023/03/18 00:19:05;;;;;;;18.90;11.85;;;14.70;99.90;;;;;;4964739;28;21286;-72
2023/03/18 00:21:31;;;;;;;20.05;12.05;;;14.60;99.90;;;;;;4965894;28;20035;-72
2023/03/18 00:23:59;;;;;;;22.08;12.68;;;14.60;99.90;;;;;;4963473;28;20019;-72
2023/03/18 00:26:26;;;;;;;22.58;12.75;;;14.60;99.90;;;;;;4962355;28;20031;-71
2023/03/18 00:28:54;;;;;;;20.40;12.77;;;14.60;99.90;;;;;;4962147;28;20435;-74
2023/03/18 00:31:20;;;;;;;22.27;12.98;;;14.50;99.90;;;;;;4964097;28;20030;-74
2023/03/18 00:33:46;;;;;;;21.00;12.43;;;14.50;99.90;;;;;;4965089;28;20033;-74
2023/03/18 00:36:13;;;;;;;22.70;13.10;;;14.50;99.90;;;;;;4967088;28;20035;-73
2023/03/18 00:38:44;;;;;;;24.70;15.65;;;14.60;99.90;;;;;;4964536;28;20089;-74
2023/03/18 00:41:11;;;;;;;22.80;14.75;;;14.50;99.90;;;;;;4961063;28;20027;-74
2023/03/18 00:43:45;;;;;;;22.27;14.02;;;14.50;99.90;;;;;;4967086;28;20935;-74
2023/03/18 00:46:18;;;;;;;24.73;15.27;;;14.40;99.90;;;;;;4967348;28;20023;-74
2023/03/18 00:48:45;;;;;;;29.38;15.52;;;14.40;99.90;;;;;;4966887;28;20059;-73
2023/03/18 00:51:13;;;;;;;25.65;15.88;;;14.40;99.90;;;;;;4965479;28;20406;-74
2023/03/18 00:53:43;;;;;;;23.42;16.05;;;14.30;99.90;;;;;;4966647;28;20335;-73
2023/03/18 00:56:10;;;;;;;31.50;15.13;;;14.30;99.90;;;;;;4983446;28;20053;-73
2023/03/18 00:58:36;;;;;;;26.17;16.52;;;14.20;99.90;;;;;;4970336;28;20032;-73
2023/03/18 01:01:03;;;;;;;30.50;15.82;;;14.20;99.90;;;;;;4976686;28;20042;-73
2023/03/18 01:03:29;;;;;;;28.73;16.67;;;14.30;99.90;;;;;;4983914;28;20027;-73
2023/03/18 01:05:55;;;;;;;24.30;16.42;;;14.30;99.90;;;;;;4965217;28;20419;-72
2023/03/18 01:08:20;;;;;;;29.77;17.65;;;14.30;99.90;;;;;;4979849;28;20375;-72
2023/03/18 01:10:47;;;;;;;27.65;16.90;;;14.20;99.90;;;;;;4985044;28;20034;-73
2023/03/18 01:13:14;;;;;;;25.25;16.42;;;14.20;99.90;;;;;;4973291;28;20058;-73
2023/03/18 01:15:41;;;;;;;28.48;18.13;;;14.20;99.90;;;;;;4967888;28;20035;-73
2023/03/18 01:18:09;;;;;;;31.08;18.63;;;14.30;99.90;;;;;;4971461;28;20046;-73
2023/03/18 01:20:36;;;;;;;28.63;17.85;;;14.30;99.90;;;;;;4969104;28;20039;-73
2023/03/18 01:23:04;;;;;;;29.05;18.70;;;14.30;99.90;;;;;;4966470;28;20020;-73
2023/03/18 01:25:30;;;;;;;29.35;19.83;;;14.30;99.90;;;;;;4975104;28;20043;-74
2023/03/18 01:27:55;;;;;;;28.70;19.52;;;14.30;99.90;;;;;;4980005;28;20085;-74
2023/03/18 01:30:22;;;;;;;28.65;18.38;;;14.40;99.90;;;;;;4972957;28;20459;-73
2023/03/18 01:32:48;;;;;;;35.00;19.60;;;14.40;99.90;;;;;;4970572;28;20061;-72
2023/03/18 01:35:13;;;;;;;28.63;18.33;;;14.30;99.90;;;;;;4973474;28;20063;-74
2023/03/18 01:37:39;;;;;;;34.17;21.50;;;14.30;99.90;;;;;;4971179;28;20527;-73
2023/03/18 01:40:07;;;;;;;32.55;19.65;;;14.20;99.90;;;;;;4972473;28;20026;-73
2023/03/18 01:42:32;;;;;;;32.42;19.23;;;14.30;99.90;;;;;;4974708;28;20085;-72
2023/03/18 01:45:24;;;;;;;34.50;20.17;;;14.30;99.90;;;;;;4970371;28;20019;-73
2023/03/18 01:47:50;;;;;;;32.55;19.70;;;14.30;99.90;;;;;;4970600;28;20027;-73
2023/03/18 01:50:30;;;;;;;32.80;19.42;;;14.30;99.90;;;;;;4976746;28;20057;-73
2023/03/18 01:53:07;;;;;;;38.88;20.35;;;14.30;99.90;;;;;;4974908;28;20041;-72
2023/03/18 01:55:34;;;;;;;30.48;19.67;;;14.30;99.90;;;;;;4969122;28;20080;-73
2023/03/18 01:58:03;;;;;;;31.30;20.27;;;14.30;99.90;;;;;;4966468;28;20034;-73
2023/03/18 02:00:29;;;;;;;31.80;21.55;;;14.20;99.90;;;;;;4969998;28;20060;-74
2023/03/18 02:02:55;;;;;;;30.77;19.83;;;14.20;99.90;;;;;;4964119;28;20428;-73
2023/03/18 02:05:24;;;;;;;34.63;20.65;;;14.10;99.90;;;;;;4974658;28;20034;-73
2023/03/18 02:07:51;;;;;;;33.35;19.83;;;14.20;99.90;;;;;;4971162;28;20372;-73
2023/03/18 02:10:25;;;;;;;32.00;18.92;;;14.20;99.90;;;;;;4968575;28;20027;-73
2023/03/18 02:13:02;;;;;;;36.65;21.55;;;14.00;99.90;;;;;;4966386;28;20034;-73
2023/03/18 02:15:29;;;;;;;37.08;22.55;;;14.10;99.90;;;;;;4965307;28;20051;-72
2023/03/18 02:18:09;;;;;;;34.13;19.23;;;14.00;99.90;;;;;;4976215;28;20026;-73
2023/03/18 02:20:54;;;;;;;39.22;22.20;;;14.00;99.90;;;;;;4973014;28;20027;-74
2023/03/18 02:24:04;;;;;;;34.63;20.90;;;14.10;99.90;;;;;;4972200;28;20391;-73
2023/03/18 02:26:42;;;;;;;33.33;21.73;;;14.00;99.90;;;;;;4973903;28;20027;-73
2023/03/18 02:29:13;;;;;;;32.05;21.65;;;13.90;99.90;;;;;;4972545;28;20534;-73
2023/03/18 02:31:40;;;;;;;35.70;21.55;;;13.90;99.90;;;;;;4974552;28;20019;-73
2023/03/18 02:34:07;;;;;;;38.45;23.48;;;14.00;99.90;;;;;;4975520;28;20034;-73
2023/03/18 02:36:35;;;;;;;32.25;20.10;;;13.90;99.90;;;;;;4977513;28;20081;-73
2023/03/18 02:39:02;;;;;;;40.97;21.52;;;13.90;99.90;;;;;;4979714;28;20034;-73
2023/03/18 02:41:31;;;;;;;34.40;20.92;;;13.90;99.90;;;;;;4977176;28;20034;-72
2023/03/18 02:43:57;;;;;;;32.33;21.42;;;13.90;99.90;;;;;;4974229;28;20027;-72
2023/03/18 02:46:35;;;;;;;35.80;21.58;;;14.00;99.90;;;;;;4973682;28;20037;-72
2023/03/18 02:49:03;;;;;;;37.83;20.48;;;14.00;99.90;;;;;;4982316;28;20038;-73
2023/03/18 02:51:29;;;;;;;41.95;20.60;;;13.90;99.90;;;;;;4973947;28;20027;-73
2023/03/18 02:54:01;;;;;;;33.17;21.05;;;13.80;99.90;;;;;;4975578;28;20109;-72
2023/03/18 02:56:28;;;;;;;32.42;20.83;;;13.90;99.90;;;;;;4975879;28;20470;-75
2023/03/18 02:58:54;;;;;;;31.38;19.58;;;13.90;99.90;;;;;;4971387;28;20502;-76
2023/03/18 03:01:20;;;;;;;31.70;19.20;;;13.90;99.90;;;;;;4981299;28;20027;-75
2023/03/18 03:03:47;;;;;;;33.63;21.05;;;13.90;99.90;;;;;;4971369;28;20478;-75
2023/03/18 03:06:12;;;;;;;32.90;19.65;;;13.80;99.90;;;;;;4975254;28;20074;-75
2023/03/18 03:08:39;;;;;;;34.17;20.98;;;13.80;99.90;;;;;;4977602;28;20121;-75
2023/03/18 03:11:04;;;;;;;34.05;20.80;;;13.90;99.90;;;;;;4974032;28;20034;-75
2023/03/18 03:13:30;;;;;;;34.83;22.17;;;13.80;99.90;;;;;;4974793;28;20427;-73
2023/03/18 03:15:56;;;;;;;33.80;19.90;;;13.80;99.90;;;;;;4971657;28;21146;-75
2023/03/18 03:18:22;;;;;;;34.28;20.88;;;13.80;99.90;;;;;;4971341;28;20023;-74
2023/03/18 03:20:49;;;;;;;38.35;21.90;;;13.80;99.90;;;;;;4974903;28;20382;-75
2023/03/18 03:23:15;;;;;;;33.55;20.92;;;13.80;99.90;;;;;;4971437;28;20475;-74
2023/03/18 03:25:43;;;;;;;32.40;20.88;;;13.70;99.90;;;;;;4973601;28;20046;-75
2023/03/18 03:28:11;;;;;;;36.70;21.25;;;13.70;99.90;;;;;;4970777;28;20015;-75
2023/03/18 03:30:38;;;;;;;38.83;21.60;;;13.70;99.90;;;;;;4977530;28;20390;-75
2023/03/18 03:33:04;;;;;;;33.72;21.33;;;13.70;99.90;;;;;;4980795;28;20109;-75
2023/03/18 03:35:30;;;;;;;33.17;21.80;;;13.80;99.90;;;;;;4968653;28;20034;-75
2023/03/18 03:37:57;;;;;;;26.92;18.63;;;13.80;99.90;;;;;;4977636;28;20023;-75
2023/03/18 03:40:22;;;;;;;31.40;20.63;;;13.80;99.90;;;;;;4986509;28;20027;-75
2023/03/18 03:42:48;;;;;;;29.27;20.25;;;13.80;99.90;;;;;;4966786;28;20056;-75
2023/03/18 03:45:16;;;;;;;35.17;20.15;;;13.80;99.90;;;;;;4971368;28;20086;-75
2023/03/18 03:47:42;;;;;;;32.53;20.80;;;13.80;99.90;;;;;;4975414;28;20074;-75
2023/03/18 03:50:10;;;;;;;32.75;20.52;;;13.70;99.90;;;;;;4970522;28;20471;-75
2023/03/18 03:52:37;;;;;;;33.38;20.90;;;13.70;99.90;;;;;;4981015;28;20113;-74
2023/03/18 03:55:06;;;;;;;35.20;20.52;;;13.70;99.90;;;;;;4973382;28;20030;-76
2023/03/18 03:57:31;;;;;;;41.35;23.67;;;13.70;99.90;;;;;;4978458;28;20423;-76
2023/03/18 03:59:57;;;;;;;37.85;22.33;;;13.70;99.90;;;;;;4979964;28;20061;-76
2023/03/18 04:02:23;;;;;;;33.92;21.77;;;13.60;99.90;;;;;;4980637;28;20031;-75
2023/03/18 04:04:50;;;;;;;34.85;21.38;;;13.60;99.90;;;;;;4981983;28;20471;-76
2023/03/18 04:07:16;;;;;;;39.53;23.30;;;13.60;99.90;;;;;;4974726;28;20361;-75
2023/03/18 04:09:41;;;;;;;36.15;23.00;;;13.60;99.90;;;;;;4971228;28;20073;-75
2023/03/18 04:12:08;;;;;;;35.58;20.95;;;13.60;99.90;;;;;;4974186;28;20589;-75
2023/03/18 04:14:34;;;;;;;35.15;19.98;;;13.60;99.90;;;;;;4968657;28;20106;-75
2023/03/18 04:17:00;;;;;;;35.85;20.98;;;13.70;99.90;;;;;;4973049;28;20030;-74
2023/03/18 04:19:27;;;;;;;32.67;19.42;;;13.70;99.90;;;;;;4973790;28;20037;-72
2023/03/18 04:21:54;;;;;;;36.10;21.27;;;13.70;99.90;;;;;;4972692;28;20026;-75
2023/03/18 04:24:20;;;;;;;36.70;22.10;;;13.70;99.90;;;;;;4973191;28;20513;-75
2023/03/18 04:26:46;;;;;;;34.42;20.63;;;13.70;99.90;;;;;;4976275;28;20092;-75
2023/03/18 04:29:12;;;;;;;37.05;21.17;;;13.70;99.90;;;;;;4969361;28;20035;-75
2023/03/18 04:31:38;;;;;;;33.78;20.95;;;13.70;99.90;;;;;;4973282;28;20030;-75
2023/03/18 04:34:04;;;;;;;34.08;19.33;;;13.70;99.90;;;;;;4978213;28;20199;-76
2023/03/18 04:36:29;;;;;;;32.80;21.33;;;13.70;99.90;;;;;;4972181;28;20031;-76
2023/03/18 04:38:55;;;;;;;36.03;23.98;;;13.60;99.90;;;;;;4970274;28;20034;-75
2023/03/18 04:41:21;;;;;;;38.72;22.08;;;13.60;99.90;;;;;;4972865;28;20029;-74
2023/03/18 04:43:47;;;;;;;42.00;24.45;;;13.60;99.90;;;;;;4972841;28;20027;-75
2023/03/18 04:46:14;;;;;;;35.33;21.65;;;13.60;99.90;;;;;;4972085;28;20522;-76
2023/03/18 04:48:40;;;;;;;35.28;21.80;;;13.60;99.90;;;;;;4967027;28;20121;-75
2023/03/18 04:51:08;;;;;;;36.22;22.20;;;13.60;99.90;;;;;;4971921;28;20468;-75
2023/03/18 04:53:35;;;;;;;39.35;23.75;;;13.60;99.90;;;;;;4982408;28;20018;-75
2023/03/18 04:56:01;;;;;;;32.17;21.20;;;13.50;99.90;;;;;;4977200;28;20029;-76
2023/03/18 04:58:27;;;;;;;39.80;23.08;;;13.50;99.90;;;;;;4967884;28;20035;-76
2023/03/18 05:00:53;;;;;;;38.78;23.05;;;13.60;99.90;;;;;;4970805;28;20031;-75
2023/03/18 05:03:19;;;;;;;41.15;23.90;;;13.60;99.90;;;;;;4973023;28;20027;-77
2023/03/18 05:05:44;;;;;;;37.28;23.13;;;13.60;99.90;;;;;;4973943;28;20035;-75
2023/03/18 05:08:11;;;;;;;34.70;22.13;;;13.60;99.90;;;;;;4968717;28;20027;-75
2023/03/18 05:10:39;;;;;;;44.00;23.08;;;13.60;99.90;;;;;;4973703;28;20030;-76
2023/03/18 05:13:05;;;;;;;34.42;22.80;;;13.60;99.90;;;;;;4974351;28;20035;-75
2023/03/18 05:15:31;;;;;;;39.63;24.88;;;13.60;99.90;;;;;;4974626;28;20452;-75
2023/03/18 05:17:57;;;;;;;33.35;22.40;;;13.50;99.90;;;;;;4974284;28;20022;-75
2023/03/18 05:20:23;;;;;;;35.08;22.80;;;13.60;99.90;;;;;;4978916;28;20022;-75
2023/03/18 05:22:48;;;;;;;37.35;24.17;;;13.40;99.90;;;;;;4967752;28;20388;-76
2023/03/18 05:25:14;;;;;;;39.10;23.00;;;13.40;99.90;;;;;;4970408;28;20030;-75
2023/03/18 05:27:41;;;;;;;33.53;21.65;;;13.40;99.90;;;;;;4974647;28;20076;-75
2023/03/18 05:30:08;;;;;;;36.85;22.08;;;13.40;99.90;;;;;;4969693;28;20122;-75
2023/03/18 05:32:34;;;;;;;34.92;20.58;;;13.30;99.90;;;;;;4972881;28;20599;-76
2023/03/18 05:35:00;;;;;;;36.25;22.23;;;13.30;99.90;;;;;;4975431;28;20121;-76
2023/03/18 05:37:25;;;;;;;39.20;23.90;;;13.30;99.90;;;;;;4970244;28;20050;-75
2023/03/18 05:39:52;;;;;;;39.03;21.70;;;13.30;99.90;;;;;;4968594;28;20879;-75
2023/03/18 05:42:18;;;;;;;49.25;23.08;;;13.30;99.90;;;;;;4976093;28;20025;-74
2023/03/18 05:44:44;;;;;;;40.83;21.75;;;13.30;99.90;;;;;;4976226;28;20026;-75
2023/03/18 05:47:10;;;;;;;33.55;21.00;;;13.20;99.90;;;;;;4973737;28;20084;-74
2023/03/18 05:49:36;;;;;;;36.65;20.88;;;13.20;99.90;;;;;;4981248;28;20046;-76
2023/03/18 05:52:02;;;;;;;33.67;21.15;;;13.20;99.90;;;;;;4974040;28;20034;-76
2023/03/18 05:54:28;;;;;;;35.75;23.08;;;13.10;99.90;;;;;;4972714;28;20037;-76
2023/03/18 05:56:54;;;;;;;36.00;22.50;;;13.10;99.90;;;;;;4978342;28;20018;-76
2023/03/18 05:59:21;;;;;;;37.08;22.88;;;13.10;99.90;;;;;;4973674;28;20027;-74
2023/03/18 06:01:47;;;;;;;39.80;22.27;;;13.10;99.90;;;;;;4975278;28;20027;-75
2023/03/18 06:04:16;;;;;;;32.83;22.13;;;13.10;99.90;;;;;;4973540;28;20030;-76
2023/03/18 06:06:42;;;;;;;32.50;21.20;;;13.00;99.90;;;;;;4974326;28;20030;-76
2023/03/18 06:09:10;;;;;;;39.20;23.70;;;13.00;99.90;;;;;;4970894;28;20456;-76
2023/03/18 06:11:37;;;;;;;35.13;23.38;;;13.00;99.90;;;;;;4964641;28;20022;-75
2023/03/18 06:14:04;;;;;;;33.97;22.42;;;12.90;99.90;;;;;;4967620;28;20030;-76
2023/03/18 06:16:31;;;;;;;37.40;21.17;;;13.00;99.90;;;;;;4971574;28;20026;-76
2023/03/18 06:18:57;;;;;;;39.05;23.85;;;12.90;99.90;;;;;;4977864;28;20048;-75
2023/03/18 06:21:23;;;;;;;36.75;23.25;;;12.90;99.90;;;;;;4974116;28;20092;-76
2023/03/18 06:23:49;;;;;;;40.70;24.85;;;12.90;99.90;;;;;;4968037;28;20475;-75
2023/03/18 06:26:15;;;;;;;34.20;25.67;;;12.90;99.90;;;;;;4966524;28;20482;-75
2023/03/18 06:28:41;;;;;;;37.00;23.98;;;12.80;99.90;;;;;;4970372;28;20039;-75
2023/03/18 06:31:07;;;;;;;40.53;24.42;;;12.80;99.90;;;;;;4969351;28;20031;-76
2023/03/18 06:33:33;;;;;;;35.40;23.13;;;12.80;99.90;;;;;;4972907;28;20885;-75
2023/03/18 06:36:01;;;;;;;35.92;23.67;;;12.70;99.90;;;;;;4968249;28;20097;-76
2023/03/18 06:38:27;;;;;;;23.75;15.65;;;12.80;99.90;;;;;;4973411;28;20027;-75
2023/03/18 06:40:54;;;;;;;40.13;25.45;;;12.80;99.90;;;;;;4976305;28;20057;-76
2023/03/18 06:43:20;;;;;;;38.67;23.65;;;12.80;99.90;;;;;;4976025;28;20034;-75
2023/03/18 06:45:46;;;;;;;41.50;22.33;;;12.70;99.90;;;;;;4964822;28;20030;-73
2023/03/18 06:48:12;;;;;;;34.15;22.00;;;12.80;99.90;;;;;;4966295;28;20035;-73
2023/03/18 06:50:39;;;;;;;37.47;24.75;;;12.80;99.90;;;;;;4971287;28;20114;-72
2023/03/18 06:53:06;;;;;;;36.30;23.73;;;12.80;99.90;;;;;;4967849;28;20026;-73
2023/03/18 06:55:33;;;;;;;37.95;24.80;;;12.80;99.90;;;;;;4976493;28;20141;-73
2023/03/18 06:57:58;;;;;;;33.95;22.52;;;12.80;99.90;;;;;;4969554;28;20102;-73
2023/03/18 07:00:25;;;;;;;38.33;25.08;;;12.90;99.90;;;;;;4969431;28;20550;-74
2023/03/18 07:02:51;;;;;;;36.00;23.42;;;12.90;99.90;;;;;;4970873;28;20411;-73
2023/03/18 07:05:19;;;;;;;37.88;23.13;;;12.90;99.90;;;;;;4966115;28;20090;-74
2023/03/18 07:07:47;;;;;;;38.00;23.80;;;12.90;99.90;;;;;;4974408;28;20540;-73
2023/03/18 07:10:26;;;;;;;30.02;21.35;;;12.80;99.90;;;;;;4966880;28;20050;-73
2023/03/18 07:12:53;;;;;;;36.35;22.35;;;12.80;99.90;;;;;;4968959;28;20081;-73
2023/03/18 07:15:20;;;;;;;37.25;21.50;;;12.80;99.90;;;;;;4966388;28;20432;-73
2023/03/18 07:17:46;;;;;;;33.85;19.05;;;12.80;99.90;;;;;;4960167;28;20130;-73
2023/03/18 07:20:14;;;;;;;35.15;19.98;;;12.80;99.90;;;;;;4971144;28;20026;-74
2023/03/18 07:22:41;;;;;;;32.88;20.00;;;12.70;99.90;;;;;;4970726;28;20419;-74
2023/03/18 07:25:07;;;;;;;35.30;19.55;;;12.70;99.90;;;;;;4976677;28;20098;-73
2023/03/18 07:27:33;;;;;;;35.80;21.48;;;12.70;99.90;;;;;;4985634;28;20050;-73
2023/03/18 07:29:59;;;;;;;32.67;21.10;;;12.80;99.90;;;;;;4975773;28;20105;-73
2023/03/18 07:32:25;;;;;;;32.60;19.20;;;12.90;99.90;;;;;;4975647;28;20023;-72
2023/03/18 07:34:50;;;;;;;28.27;19.13;;;12.80;99.90;;;;;;4973506;28;20494;-73
2023/03/18 07:37:16;;;;;;;31.65;19.45;;;12.90;99.90;;;;;;4975897;28;20096;-73
2023/03/18 07:39:42;;;;;;;32.33;19.05;;;12.90;99.90;;;;;;4974429;28;20038;-72
2023/03/18 07:42:09;;;;;;;27.60;18.13;;;13.00;99.90;;;;;;4975508;28;20029;-73
2023/03/18 07:44:36;;;;;;;25.52;17.10;;;13.10;99.90;;;;;;4973931;28;20031;-72
2023/03/18 07:47:02;;;;;;;27.33;18.00;;;13.00;99.90;;;;;;4974122;28;20034;-72
2023/03/18 07:49:29;;;;;;;24.92;16.73;;;13.00;99.90;;;;;;4969632;28;20043;-73
2023/03/18 07:51:55;;;;;;;27.92;18.08;;;13.10;99.90;;;;;;4968423;28;20476;-72
2023/03/18 07:54:22;;;;;;;34.25;18.85;;;13.00;99.90;;;;;;4970916;28;20033;-73
2023/03/18 07:56:49;;;;;;;25.92;16.42;;;13.10;99.90;;;;;;4978381;28;20083;-73
2023/03/18 07:59:15;;;;;;;25.13;17.00;;;13.10;99.90;;;;;;4974929;28;20034;-73
2023/03/18 08:01:41;;;;;;;21.95;16.25;;;13.20;99.90;;;;;;4974814;28;20030;-73
2023/03/18 08:04:07;;;;;;;21.02;15.65;;;13.20;99.90;;;;;;4976706;28;20109;-73
2023/03/18 08:06:33;;;;;;;20.75;15.82;;;13.30;99.90;;;;;;4975808;28;20089;-73
2023/03/18 08:08:59;;;;;;;23.17;16.77;;;13.40;99.90;;;;;;4971506;28;20051;-73
2023/03/18 08:11:25;;;;;;;24.55;16.48;;;13.50;99.90;;;;;;4970875;28;20030;-73
2023/03/18 08:13:50;;;;;;;19.60;14.98;;;13.50;99.90;;;;;;4981689;28;20109;-73
2023/03/18 08:16:17;;;;;;;23.23;15.68;;;13.70;99.90;;;;;;4981296;28;20027;-73
2023/03/18 08:18:43;;;;;;;18.73;13.82;;;13.80;99.90;;;;;;4979617;28;20022;-73
2023/03/18 08:21:09;;;;;;;21.63;15.80;;;13.80;99.90;;;;;;4976607;28;20519;-73
2023/03/18 08:23:36;;;;;;;19.70;13.85;;;13.90;99.90;;;;;;4974626;28;20030;-73
2023/03/18 08:26:02;;;;;;;18.23;13.98;;;14.00;99.90;;;;;;4970900;28;20027;-73
2023/03/18 08:28:28;;;;;;;17.98;13.00;;;14.20;99.90;;;;;;4980645;28;20026;-73
2023/03/18 08:30:55;;;;;;;16.88;11.88;;;14.20;99.90;;;;;;4972089;28;20030;-74
2023/03/18 08:33:25;;;;;;;15.23;11.55;;;14.10;99.90;;;;;;4976223;28;20066;-74
2023/03/18 08:35:51;;;;;;;16.45;12.00;;;14.10;99.90;;;;;;4968607;28;20076;-74
2023/03/18 08:38:18;;;;;;;16.60;10.65;;;14.10;99.90;;;;;;4970516;28;20042;-73
2023/03/18 08:40:45;;;;;;;16.63;11.13;;;14.10;99.90;;;;;;4969524;28;20031;-72
2023/03/18 08:43:11;;;;;;;16.52;12.40;;;14.10;99.90;;;;;;4968862;28;20039;-73
2023/03/18 08:45:37;;;;;;;14.15;11.32;;;14.20;99.90;;;;;;4971337;28;20027;-72
2023/03/18 08:48:02;;;;;;;17.58;12.88;;;14.20;99.90;;;;;;4969368;28;20046;-74
2023/03/18 08:50:28;;;;;;;15.05;11.27;;;14.20;99.90;;;;;;4979342;28;20105;-72
2023/03/18 08:52:56;;;;;;;20.17;12.15;;;14.40;99.90;;;;;;4966408;28;20426;-73
2023/03/18 08:55:31;;;;;;;13.35;10.57;;;14.50;99.90;;;;;;4978320;28;20042;-72
2023/03/18 08:57:57;;;;;;;15.35;10.43;;;14.40;99.90;;;;;;4975567;28;20034;-73
2023/03/18 09:00:24;;;;;;;14.88;9.75;;;14.40;99.90;;;;;;4972143;28;20019;-72
2023/03/18 09:02:51;;;;;;;14.30;9.98;;;14.50;99.90;;;;;;4968940;28;20058;-74
2023/03/18 09:05:17;;;;;;;12.45;10.05;;;14.60;99.90;;;;;;4980319;28;20015;-73
2023/03/18 09:07:44;;;;;;;13.40;9.23;;;14.60;99.90;;;;;;4971252;28;20037;-73
2023/03/18 09:10:15;;;;;;;14.35;10.23;;;14.70;99.90;;;;;;4972276;28;20039;-72
2023/03/18 09:12:42;;;;;;;11.68;9.35;;;14.80;99.90;;;;;;4973046;28;20027;-75
2023/03/18 09:15:10;;;;;;;9.10;8.02;;;14.90;99.90;;;;;;4971094;28;20117;-75
2023/03/18 09:17:39;;;;;;;10.77;8.25;;;15.10;99.90;;;;;;4971000;28;20578;-74
2023/03/18 09:20:10;;;;;;;14.93;9.57;;;15.30;99.90;;;;;;4968598;28;20500;-75
2023/03/18 09:22:37;;;;;;;13.10;8.93;;;15.30;99.90;;;;;;4972272;28;20043;-75
2023/03/18 09:25:03;;;;;;;10.45;8.48;;;15.50;99.90;;;;;;4970651;28;20045;-75
2023/03/18 09:27:29;;;;;;;10.98;8.52;;;15.60;99.90;;;;;;4973956;28;20419;-74
2023/03/18 09:29:55;;;;;;;8.63;7.72;;;15.60;99.90;;;;;;4965736;28;20173;-75
2023/03/18 09:32:21;;;;;;;12.07;7.43;;;15.80;99.90;;;;;;4984727;28;20113;-73
2023/03/18 09:34:47;;;;;;;8.88;7.20;;;15.90;99.90;;;;;;4970619;28;20034;-73
2023/03/18 09:37:13;;;;;;;9.18;6.47;;;16.00;99.90;;;;;;4974699;28;20042;-76
2023/03/18 09:39:40;;;;;;;9.20;7.07;;;16.10;99.90;;;;;;4977694;28;20027;-76
2023/03/18 09:42:14;;;;;;;9.48;6.18;;;16.30;99.90;;;;;;4976402;28;20026;-76
2023/03/18 09:44:41;;;;;;;8.18;6.70;;;16.30;99.90;;;;;;4969507;28;20086;-76
2023/03/18 09:47:17;;;;;;;8.32;6.47;;;16.30;99.90;;;;;;4973322;28;20018;-74
2023/03/18 09:49:54;;;;;;;7.30;6.13;;;16.10;99.90;;;;;;4968238;28;20526;-75
2023/03/18 09:52:30;;;;;;;8.55;6.30;;;16.10;99.90;;;;;;4971068;28;20468;-75
2023/03/18 09:55:04;;;;;;;10.95;6.60;;;16.30;99.90;;;;;;4965466;28;20038;-75
2023/03/18 09:57:34;;;;;;;8.60;6.82;;;16.60;99.90;;;;;;4975262;28;20019;-73
2023/03/18 10:00:16;;;;;;;11.48;7.03;;;16.70;99.90;;;;;;4974449;28;20490;-74
2023/03/18 10:03:11;;;;;;;8.57;6.13;;;16.70;99.90;;;;;;4968920;28;20023;-75
2023/03/18 10:05:55;;;;;;;7.40;5.55;;;16.80;99.90;;;;;;4962071;28;20031;-74
2023/03/18 10:08:27;;;;;;;7.28;5.28;;;17.00;99.90;;;;;;4976442;28;20035;-75
2023/03/18 10:10:52;;;;;;;10.35;5.43;;;17.00;99.90;;;;;;4969788;28;20479;-75
2023/03/18 10:13:37;;;;;;;10.10;5.80;;;17.10;99.90;;;;;;4969634;28;20074;-74
2023/03/18 10:16:09;;;;;;;7.30;5.25;;;17.30;99.90;;;;;;4970774;28;20015;-75
2023/03/18 10:18:38;;;;;;;6.43;4.75;;;17.40;99.90;;;;;;4970611;28;20027;-75
2023/03/18 10:21:30;;;;;;;5.43;4.07;;;17.60;99.90;;;;;;4963445;28;20035;-74
2023/03/18 10:24:18;;;;;;;4.47;3.87;;;17.50;99.90;;;;;;4963120;28;20042;-74
2023/03/18 10:26:51;;;;;;;4.57;3.70;;;17.60;99.90;;;;;;4934141;28;20020;-75
2023/03/18 10:29:41;;;;;;;4.53;2.70;;;17.70;99.90;;;;;;4957802;28;20177;-75
2023/03/18 10:32:13;;;;;;;4.68;3.30;;;17.50;99.90;;;;;;4956703;28;20031;-74
2023/03/18 10:34:40;;;;;;;6.67;2.70;;;17.50;99.90;;;;;;4961673;28;20137;-73
2023/03/18 10:37:36;;;;;;;3.38;2.92;;;17.40;99.90;;;;;;4960282;28;20381;-73
2023/03/18 10:40:09;;;;;;;4.25;2.55;;;17.40;99.90;;;;;;4961631;28;20038;-73
2023/03/18 10:42:37;;;;;;;7.13;2.90;;;17.30;99.90;;;;;;4960529;28;20034;-73
2023/03/18 10:45:30;;;;;;;4.72;2.80;;;17.50;99.90;;;;;;4962336;28;20055;-73
2023/03/18 10:48:03;;;;;;;6.22;3.10;;;17.60;99.90;;;;;;4960076;28;20116;-73
2023/03/18 10:50:34;;;;;;;;;;;17.50;99.90;;;;;;4959191;28;20047;-73
2023/03/18 10:53:33;;;;;;;8.00;3.15;;;17.40;99.90;;;;;;4959690;28;19953;-73
2023/03/18 10:56:13;;;;;;;6.50;2.88;;;17.40;99.90;;;;;;4961256;28;20030;-73
2023/03/18 10:58:40;;;;;;;6.90;3.30;;;17.30;99.90;;;;;;4962848;28;20086;-74
2023/03/18 11:01:08;;;;;;;5.18;2.85;;;17.30;99.90;;;;;;4959501;28;20057;-74
2023/03/18 11:03:40;;;;;;;5.65;3.13;;;17.20;99.90;;;;;;4961637;28;20050;-72
2023/03/18 11:06:15;;;;;;;5.88;3.03;;;17.20;99.90;;;;;;4959827;28;20027;-74
2023/03/18 11:08:41;;;;;;;4.43;3.10;;;17.10;99.90;;;;;;4962726;28;20038;-73
2023/03/18 11:11:24;;;;;;;8.07;3.20;;;17.00;99.90;;;;;;4958547;28;20519;-72
2023/03/18 11:13:52;;;;;;;6.15;3.47;;;17.10;99.90;;;;;;4961683;28;20027;-73
2023/03/18 11:16:32;;;;;;;6.18;3.60;;;17.00;99.90;;;;;;4961435;28;22327;-73
2023/03/18 11:18:58;;;;;;;5.13;3.63;;;17.00;99.90;;;;;;4962236;28;20385;-73
2023/03/18 11:21:25;;;;;;;6.90;3.85;;;17.00;99.90;;;;;;4959714;28;20027;-74
2023/03/18 11:24:09;;;;;;;5.35;3.58;;;17.10;99.90;;;;;;4970114;28;20035;-73
2023/03/18 11:26:53;;;;;;;6.35;3.60;;;17.20;99.90;;;;;;4975379;28;20023;-74
2023/03/18 11:29:29;;;;;;;3.88;3.22;;;17.10;99.90;;;;;;4968159;28;20403;-73
2023/03/18 11:31:59;;;;;;;4.57;2.95;;;17.30;99.90;;;;;;4964376;28;20046;-74
2023/03/18 11:34:32;;;;;;;3.95;2.90;;;17.20;99.90;;;;;;4980020;28;20468;-73
2023/03/18 11:37:05;;;;;;;;;;;17.20;99.90;;;;;;4965296;28;20037;-73
2023/03/18 11:39:36;;;;;;;4.85;3.03;;;17.30;99.90;;;;;;4979293;28;19913;-74
2023/03/18 11:42:20;;;;;;;3.33;3.03;;;17.30;99.90;;;;;;4965837;28;20475;-74
2023/03/18 11:44:48;;;;;;;5.65;3.63;;;17.30;99.90;;;;;;4971764;28;20488;-73
2023/03/18 11:47:21;;;;;;;5.93;3.20;;;17.30;99.90;;;;;;4971023;28;20031;-75
2023/03/18 11:49:46;;;;;;;5.18;3.38;;;17.20;99.90;;;;;;4973611;28;20499;-76
2023/03/18 11:52:27;;;;;;;4.65;2.92;;;17.10;99.90;;;;;;4980634;28;20019;-74
2023/03/18 11:55:11;;;;;;;5.30;3.15;;;17.10;99.90;;;;;;4969971;28;20169;-74
2023/03/18 11:58:05;;;;;;;3.50;2.83;;;17.00;99.90;;;;;;4976180;28;20037;-74
2023/03/18 12:00:35;;;;;;;4.10;2.80;;;16.90;99.90;;;;;;4981281;28;20052;-74
2023/03/18 12:03:23;;;;;;;5.55;3.28;;;16.90;99.90;;;;;;4974483;28;20035;-74
2023/03/18 12:06:11;;;;;;;2.80;2.53;;;16.70;99.90;;;;;;4974816;28;20042;-74
2023/03/18 12:08:40;;;;;;;5.80;3.70;;;16.80;99.90;;;;;;4974826;28;20645;-74
2023/03/18 12:11:23;;;;;;;4.40;3.33;;;16.80;99.90;;;;;;4970034;28;20054;-74
2023/03/18 12:14:00;;;;;;;5.25;3.00;;;16.80;99.90;;;;;;4971628;28;20380;-73
2023/03/18 12:16:50;;;;;;;3.17;2.28;;;16.80;99.90;;;;;;4970484;28;20027;-74
2023/03/18 12:19:19;;;;;;;3.85;2.75;;;16.80;99.90;;;;;;4967928;28;20031;-74
2023/03/18 12:22:22;;;;;;;2.80;2.60;;;16.80;99.90;;;;;;4977232;28;20479;-74
2023/03/18 12:25:31;;;;;;;9.60;3.38;;;16.60;99.90;;;;;;4977408;28;20031;-74
2023/03/18 12:28:19;;;;;;;4.97;2.33;;;16.60;99.90;;;;;;4971297;28;20038;-74
2023/03/18 12:31:09;;;;;;;5.38;2.53;;;16.80;99.90;;;;;;4976935;28;20090;-74
2023/03/18 12:33:56;;;;;;;4.22;2.13;;;16.80;99.90;;;;;;4970038;28;20050;-74
2023/03/18 12:36:47;;;;;;;6.90;2.33;;;16.80;99.90;;;;;;4975109;28;20030;-74
2023/03/18 12:39:25;;;;;;;4.68;2.20;;;16.70;99.90;;;;;;4974712;28;20050;-75
2023/03/18 12:42:14;;;;;;;3.38;1.90;;;16.60;99.90;;;;;;4961483;28;20045;-75
2023/03/18 12:44:57;;;;;;;2.45;1.60;;;16.70;99.90;;;;;;4974364;28;20117;-74
2023/03/18 12:47:49;;;;;;;5.07;1.88;;;16.60;99.90;;;;;;4985772;28;20033;-74